Essadouira, Essaouira Airport (GMMI)

NameEssaouira Airport
CityEssadouira
CountryMorocco
ICAOGMMI
IATAESU
Altitude117 m
CoordinatesGoogle Map
Live Air TrafficLiveATC.net
METARGMMI 251700Z 30008KT CAVOK 21/13 Q1016 NOSIG
2020-04-25 17:00:00 Wind: West-Northwest (300°) 4.12 m/s - Visibility: > 10000 m - Weather: CAVOK - Temperature: 21 °C - Dew point: 13 °C - Humidity: 60.4% - Pressure: 1016 hPa

Sorry, no flights used the airport in this database.